sensor_id;sensor_type;location;lat;lon;timestamp;pressure;altitude;pressure_sealevel;temperature;humidity
31585;BME280;18191;51.288;12.390;2023-05-07T00:03:06;48988.94;;;-144.47;82.26
31585;BME280;18191;51.288;12.390;2023-05-07T00:07:56;48965.06;;;-144.47;82.07
31585;BME280;18191;51.288;12.390;2023-05-07T00:12:46;48988.94;;;-144.47;82.43
31585;BME280;18191;51.288;12.390;2023-05-07T00:17:37;49012.81;;;-144.47;82.75
31585;BME280;18191;51.288;12.390;2023-05-07T00:22:27;48981.00;;;-144.47;82.05
31585;BME280;18191;51.288;12.390;2023-05-07T00:27:17;48973.03;;;-144.47;81.95
31585;BME280;18191;51.288;12.390;2023-05-07T00:32:07;49006.84;;;-144.47;80.91
31585;BME280;18191;51.288;12.390;2023-05-07T00:36:58;48957.13;;;-144.47;80.22
31585;BME280;18191;51.288;12.390;2023-05-07T00:41:48;48986.97;;;-144.47;80.67
31585;BME280;18191;51.288;12.390;2023-05-07T00:46:38;48996.91;;;-144.47;81.38
31585;BME280;18191;51.288;12.390;2023-05-07T00:51:28;48992.94;;;-144.47;81.59
31585;BME280;18191;51.288;12.390;2023-05-07T00:56:20;48992.94;;;-144.47;80.50
31585;BME280;18191;51.288;12.390;2023-05-07T01:01:11;48990.94;;;-144.47;81.56
31585;BME280;18191;51.288;12.390;2023-05-07T01:06:01;49008.84;;;-144.47;80.03
31585;BME280;18191;51.288;12.390;2023-05-07T01:10:52;48973.03;;;-144.47;80.74
31585;BME280;18191;51.288;12.390;2023-05-07T01:15:43;49000.88;;;-144.47;81.18
31585;BME280;18191;51.288;12.390;2023-05-07T01:20:33;48996.91;;;-144.47;81.31
31585;BME280;18191;51.288;12.390;2023-05-07T01:25:23;48957.13;;;-144.47;82.44
31585;BME280;18191;51.288;12.390;2023-05-07T01:30:14;49004.84;;;-144.47;81.84
31585;BME280;18191;51.288;12.390;2023-05-07T01:35:05;49012.81;;;-144.47;81.82
31585;BME280;18191;51.288;12.390;2023-05-07T01:39:57;48975.03;;;-144.47;82.11
31585;BME280;18191;51.288;12.390;2023-05-07T01:44:47;48996.91;;;-144.47;82.37
31585;BME280;18191;51.288;12.390;2023-05-07T01:49:38;48981.00;;;-144.47;82.47
31585;BME280;18191;51.288;12.390;2023-05-07T01:54:28;49012.81;;;-144.47;82.52
31585;BME280;18191;51.288;12.390;2023-05-07T01:59:19;48992.94;;;-144.47;82.08
31585;BME280;18191;51.288;12.390;2023-05-07T02:04:09;49002.88;;;-144.47;82.54
31585;BME280;18191;51.288;12.390;2023-05-07T02:08:59;48984.97;;;-144.47;82.12
31585;BME280;18191;51.288;12.390;2023-05-07T02:13:49;49008.84;;;-144.47;82.74
31585;BME280;18191;51.288;12.390;2023-05-07T02:18:39;48988.94;;;-144.47;82.37
31585;BME280;18191;51.288;12.390;2023-05-07T02:23:30;49022.75;;;-144.47;82.96
31585;BME280;18191;51.288;12.390;2023-05-07T02:28:20;48996.91;;;-144.47;83.29
31585;BME280;18191;51.288;12.390;2023-05-07T02:33:10;49012.81;;;-144.47;83.55
31585;BME280;18191;51.288;12.390;2023-05-07T02:38:02;49008.84;;;-144.47;82.62
31585;BME280;18191;51.288;12.390;2023-05-07T02:42:52;49032.72;;;-144.47;83.65
31585;BME280;18191;51.288;12.390;2023-05-07T02:47:42;49000.88;;;-144.47;82.69
31585;BME280;18191;51.288;12.390;2023-05-07T02:52:33;48986.97;;;-144.47;82.23
31585;BME280;18191;51.288;12.390;2023-05-07T02:57:23;48971.03;;;-144.47;81.77
31585;BME280;18191;51.288;12.390;2023-05-07T03:02:13;49000.88;;;-144.47;82.26
31585;BME280;18191;51.288;12.390;2023-05-07T03:07:03;48988.94;;;-144.47;82.15
31585;BME280;18191;51.288;12.390;2023-05-07T03:11:53;49056.59;;;-144.47;82.80
31585;BME280;18191;51.288;12.390;2023-05-07T03:16:44;49038.69;;;-144.47;82.63
31585;BME280;18191;51.288;12.390;2023-05-07T03:21:34;49002.88;;;-144.47;81.48
31585;BME280;18191;51.288;12.390;2023-05-07T03:26:24;49032.72;;;-144.47;82.16
31585;BME280;18191;51.288;12.390;2023-05-07T03:31:15;49024.75;;;-144.47;82.94
31585;BME280;18191;51.288;12.390;2023-05-07T03:36:05;49024.75;;;-144.47;82.54
31585;BME280;18191;51.288;12.390;2023-05-07T03:40:55;49000.88;;;-144.47;83.12
31585;BME280;18191;51.288;12.390;2023-05-07T03:45:45;49010.81;;;-144.47;83.79
31585;BME280;18191;51.288;12.390;2023-05-07T03:50:36;49000.88;;;-144.47;82.23
31585;BME280;18191;51.288;12.390;2023-05-07T03:55:26;48994.91;;;-144.47;81.57
31585;BME280;18191;51.288;12.390;2023-05-07T04:00:16;49036.69;;;-144.47;82.66
31585;BME280;18191;51.288;12.390;2023-05-07T04:05:07;48988.94;;;-144.47;82.65
31585;BME280;18191;51.288;12.390;2023-05-07T04:09:57;49024.75;;;-144.47;81.75
31585;BME280;18191;51.288;12.390;2023-05-07T04:14:47;48965.06;;;-144.47;80.50
31585;BME280;18191;51.288;12.390;2023-05-07T04:19:37;48984.97;;;-144.47;79.77
31585;BME280;18191;51.288;12.390;2023-05-07T04:24:30;49004.84;;;-144.47;80.80
31585;BME280;18191;51.288;12.390;2023-05-07T04:29:21;48973.03;;;-144.47;80.34
31585;BME280;18191;51.288;12.390;2023-05-07T04:34:11;49004.84;;;-144.47;80.97
31585;BME280;18191;51.288;12.390;2023-05-07T04:39:02;49028.72;;;-144.47;80.09
31585;BME280;18191;51.288;12.390;2023-05-07T04:43:52;49020.78;;;-144.47;79.16
31585;BME280;18191;51.288;12.390;2023-05-07T04:48:42;49008.84;;;-144.47;78.40
31585;BME280;18191;51.288;12.390;2023-05-07T04:53:33;49004.84;;;-144.47;80.28
31585;BME280;18191;51.288;12.390;2023-05-07T04:58:23;49024.75;;;-144.47;80.29
31585;BME280;18191;51.288;12.390;2023-05-07T05:03:15;49012.81;;;-144.47;79.10
31585;BME280;18191;51.288;12.390;2023-05-07T05:08:05;48979.00;;;-144.47;78.88
31585;BME280;18191;51.288;12.390;2023-05-07T05:12:55;49016.78;;;-144.47;79.13
31585;BME280;18191;51.288;12.390;2023-05-07T05:17:45;48977.00;;;-144.47;79.72
31585;BME280;18191;51.288;12.390;2023-05-07T05:22:36;49022.75;;;-144.47;79.77
31585;BME280;18191;51.288;12.390;2023-05-07T05:27:26;48981.00;;;-144.47;79.88
31585;BME280;18191;51.288;12.390;2023-05-07T05:32:16;49004.84;;;-144.47;80.57
31585;BME280;18191;51.288;12.390;2023-05-07T05:37:06;49016.78;;;-144.47;79.08
31585;BME280;18191;51.288;12.390;2023-05-07T05:41:58;49024.75;;;-144.47;78.76
31585;BME280;18191;51.288;12.390;2023-05-07T05:46:48;49030.72;;;-144.47;79.87
31585;BME280;18191;51.288;12.390;2023-05-07T05:51:39;49012.81;;;-144.47;78.99
31585;BME280;18191;51.288;12.390;2023-05-07T05:56:30;48984.97;;;-144.47;77.65
31585;BME280;18191;51.288;12.390;2023-05-07T06:01:20;49020.78;;;-144.47;77.73
31585;BME280;18191;51.288;12.390;2023-05-07T06:06:10;49000.88;;;-144.47;76.70
31585;BME280;18191;51.288;12.390;2023-05-07T06:11:01;48988.94;;;-144.47;76.29
31585;BME280;18191;51.288;12.390;2023-05-07T06:15:51;48996.91;;;-144.47;74.73
31585;BME280;18191;51.288;12.390;2023-05-07T06:20:41;49000.88;;;-144.47;73.29
31585;BME280;18191;51.288;12.390;2023-05-07T06:25:31;48994.91;;;-144.47;73.72
31585;BME280;18191;51.288;12.390;2023-05-07T06:30:22;48998.91;;;-144.47;75.35
31585;BME280;18191;51.288;12.390;2023-05-07T06:35:12;48957.13;;;-144.47;75.46
31585;BME280;18191;51.288;12.390;2023-05-07T06:40:02;48973.03;;;-144.47;73.90
31585;BME280;18191;51.288;12.390;2023-05-07T06:44:52;48965.06;;;-144.47;72.31
31585;BME280;18191;51.288;12.390;2023-05-07T06:49:43;49000.88;;;-144.47;71.08
31585;BME280;18191;51.288;12.390;2023-05-07T06:54:33;48977.00;;;-144.47;70.61
31585;BME280;18191;51.288;12.390;2023-05-07T06:59:24;49012.81;;;-144.47;70.65
31585;BME280;18191;51.288;12.390;2023-05-07T07:04:14;49006.84;;;-144.47;70.77
31585;BME280;18191;51.288;12.390;2023-05-07T07:09:04;48949.16;;;-144.47;70.79
31585;BME280;18191;51.288;12.390;2023-05-07T07:13:55;48945.19;;;-144.47;69.87
31585;BME280;18191;51.288;12.390;2023-05-07T07:18:45;49000.88;;;-144.47;70.03
31585;BME280;18191;51.288;12.390;2023-05-07T07:23:35;48981.00;;;-144.47;70.20
31585;BME280;18191;51.288;12.390;2023-05-07T07:28:25;48984.97;;;-144.47;69.07
31585;BME280;18191;51.288;12.390;2023-05-07T07:33:15;48984.97;;;-144.47;68.34
31585;BME280;18191;51.288;12.390;2023-05-07T07:38:06;48965.06;;;-144.47;67.22
31585;BME280;18191;51.288;12.390;2023-05-07T07:42:56;48973.03;;;-144.47;65.54
31585;BME280;18191;51.288;12.390;2023-05-07T07:47:46;48969.06;;;-144.47;65.87
31585;BME280;18191;51.288;12.390;2023-05-07T07:52:36;48969.06;;;-144.47;66.82
31585;BME280;18191;51.288;12.390;2023-05-07T07:57:27;48984.97;;;-144.47;66.94
31585;BME280;18191;51.288;12.390;2023-05-07T08:02:17;48969.06;;;-144.47;66.18
31585;BME280;18191;51.288;12.390;2023-05-07T08:07:07;48965.06;;;-144.47;65.34
31585;BME280;18191;51.288;12.390;2023-05-07T08:11:57;48996.91;;;-144.47;66.85
31585;BME280;18191;51.288;12.390;2023-05-07T08:16:49;48973.03;;;-144.47;64.94
31585;BME280;18191;51.288;12.390;2023-05-07T08:21:40;48921.31;;;-144.47;63.84
31585;BME280;18191;51.288;12.390;2023-05-07T08:26:30;49002.88;;;-144.47;62.53
31585;BME280;18191;51.288;12.390;2023-05-07T08:31:20;48965.06;;;-144.47;62.15
31585;BME280;18191;51.288;12.390;2023-05-07T08:36:12;48996.91;;;-144.47;62.45
31585;BME280;18191;51.288;12.390;2023-05-07T08:41:02;48996.91;;;-144.47;63.40
31585;BME280;18191;51.288;12.390;2023-05-07T08:45:53;48965.06;;;-144.47;63.81
31585;BME280;18191;51.288;12.390;2023-05-07T08:50:44;48973.03;;;-144.47;65.08
31585;BME280;18191;51.288;12.390;2023-05-07T08:55:34;48953.13;;;-144.47;63.49
31585;BME280;18191;51.288;12.390;2023-05-07T09:00:24;48988.94;;;-144.47;64.34
31585;BME280;18191;51.288;12.390;2023-05-07T09:05:15;48933.25;;;-144.47;64.30
31585;BME280;18191;51.288;12.390;2023-05-07T09:10:05;48933.25;;;-144.47;64.18
31585;BME280;18191;51.288;12.390;2023-05-07T09:14:56;48969.06;;;-144.47;62.95
31585;BME280;18191;51.288;12.390;2023-05-07T09:19:46;48986.97;;;-144.47;64.08
31585;BME280;18191;51.288;12.390;2023-05-07T09:24:36;49004.84;;;-144.47;66.42
31585;BME280;18191;51.288;12.390;2023-05-07T09:29:28;49028.72;;;-144.47;66.05
31585;BME280;18191;51.288;12.390;2023-05-07T09:34:20;48963.09;;;-144.47;64.95
31585;BME280;18191;51.288;12.390;2023-05-07T09:39:10;48969.06;;;-144.47;63.62
31585;BME280;18191;51.288;12.390;2023-05-07T09:44:01;49022.75;;;-144.47;64.28
31585;BME280;18191;51.288;12.390;2023-05-07T09:48:52;48982.97;;;-144.47;63.66
31585;BME280;18191;51.288;12.390;2023-05-07T09:53:43;48967.06;;;-144.47;63.29
31585;BME280;18191;51.288;12.390;2023-05-07T09:58:33;49000.88;;;-144.47;62.62
31585;BME280;18191;51.288;12.390;2023-05-07T10:03:26;48959.09;;;-144.47;62.59
31585;BME280;18191;51.288;12.390;2023-05-07T10:08:18;48969.06;;;-144.47;63.34
31585;BME280;18191;51.288;12.390;2023-05-07T10:13:10;48973.03;;;-144.47;64.26
31585;BME280;18191;51.288;12.390;2023-05-07T10:18:00;48977.00;;;-144.47;63.45
31585;BME280;18191;51.288;12.390;2023-05-07T10:22:52;48973.03;;;-144.47;62.52
31585;BME280;18191;51.288;12.390;2023-05-07T10:27:42;48959.09;;;-144.47;62.43
31585;BME280;18191;51.288;12.390;2023-05-07T10:32:37;49000.88;;;-144.47;62.56
31585;BME280;18191;51.288;12.390;2023-05-07T10:37:28;48992.94;;;-144.47;60.56
31585;BME280;18191;51.288;12.390;2023-05-07T10:42:19;48941.19;;;-144.47;61.50
31585;BME280;18191;51.288;12.390;2023-05-07T10:47:13;48984.97;;;-144.47;59.91
31585;BME280;18191;51.288;12.390;2023-05-07T10:52:13;48957.13;;;-144.47;59.73
31585;BME280;18191;51.288;12.390;2023-05-07T11:02:13;48945.19;;;-144.47;58.47
31585;BME280;18191;51.288;12.390;2023-05-07T11:11:58;48965.06;;;-144.47;60.29
31585;BME280;18191;51.288;12.390;2023-05-07T11:16:48;48929.28;;;-144.47;57.50
31585;BME280;18191;51.288;12.390;2023-05-07T11:21:39;48973.03;;;-144.47;57.57
31585;BME280;18191;51.288;12.390;2023-05-07T11:26:31;48961.09;;;-144.47;57.58
31585;BME280;18191;51.288;12.390;2023-05-07T11:31:30;48969.06;;;-144.47;55.63
31585;BME280;18191;51.288;12.390;2023-05-07T11:36:22;48937.22;;;-144.47;56.50
31585;BME280;18191;51.288;12.390;2023-05-07T11:41:12;48949.16;;;-144.47;55.92
31585;BME280;18191;51.288;12.390;2023-05-07T11:46:07;48994.91;;;-144.47;55.06
31585;BME280;18191;51.288;12.390;2023-05-07T11:55:48;48949.16;;;-144.47;55.08
31585;BME280;18191;51.288;12.390;2023-05-07T12:00:47;48965.06;;;-144.47;55.78
31585;BME280;18191;51.288;12.390;2023-05-07T12:05:37;48961.09;;;-144.47;57.25
31585;BME280;18191;51.288;12.390;2023-05-07T12:10:31;48969.06;;;-144.47;56.35
31585;BME280;18191;51.288;12.390;2023-05-07T12:15:24;48967.06;;;-144.47;56.66
31585;BME280;18191;51.288;12.390;2023-05-07T12:20:14;48977.00;;;-144.47;55.86
31585;BME280;18191;51.288;12.390;2023-05-07T12:25:06;48969.06;;;-144.47;53.15
31585;BME280;18191;51.288;12.390;2023-05-07T12:29:57;48933.25;;;-144.47;52.95
31585;BME280;18191;51.288;12.390;2023-05-07T12:34:50;48971.03;;;-144.47;53.19
31585;BME280;18191;51.288;12.390;2023-05-07T12:39:44;48973.03;;;-144.47;52.54
31585;BME280;18191;51.288;12.390;2023-05-07T12:44:37;48992.94;;;-144.47;48.18
31585;BME280;18191;51.288;12.390;2023-05-07T12:49:27;48973.03;;;-144.47;50.40
31585;BME280;18191;51.288;12.390;2023-05-07T12:59:30;48961.09;;;-144.47;50.23
31585;BME280;18191;51.288;12.390;2023-05-07T13:04:23;48943.19;;;-144.47;50.34
31585;BME280;18191;51.288;12.390;2023-05-07T13:09:14;48984.97;;;-144.47;50.26
31585;BME280;18191;51.288;12.390;2023-05-07T13:14:04;48973.03;;;-144.47;48.99
31585;BME280;18191;51.288;12.390;2023-05-07T13:18:54;48981.00;;;-144.47;49.33
31585;BME280;18191;51.288;12.390;2023-05-07T13:23:44;48951.16;;;-144.47;47.54
31585;BME280;18191;51.288;12.390;2023-05-07T13:28:34;48905.41;;;-144.47;47.20
31585;BME280;18191;51.288;12.390;2023-05-07T13:33:25;48996.91;;;-144.47;47.46
31585;BME280;18191;51.288;12.390;2023-05-07T13:38:15;48971.03;;;-144.47;47.86
31585;BME280;18191;51.288;12.390;2023-05-07T13:43:06;48986.97;;;-144.47;46.30
31585;BME280;18191;51.288;12.390;2023-05-07T13:47:56;48961.09;;;-144.47;48.69
31585;BME280;18191;51.288;12.390;2023-05-07T13:52:46;48957.13;;;-144.47;48.56
31585;BME280;18191;51.288;12.390;2023-05-07T13:57:40;48965.06;;;-144.47;49.77
31585;BME280;18191;51.288;12.390;2023-05-07T14:02:33;48945.19;;;-144.47;50.89
31585;BME280;18191;51.288;12.390;2023-05-07T14:07:23;48973.03;;;-144.47;49.85
31585;BME280;18191;51.288;12.390;2023-05-07T14:12:13;48925.28;;;-144.47;48.42
31585;BME280;18191;51.288;12.390;2023-05-07T14:17:03;48945.19;;;-144.47;48.34
31585;BME280;18191;51.288;12.390;2023-05-07T14:21:54;48969.06;;;-144.47;47.57
31585;BME280;18191;51.288;12.390;2023-05-07T14:26:44;48996.91;;;-144.47;43.75
31585;BME280;18191;51.288;12.390;2023-05-07T14:31:36;48953.13;;;-144.47;46.72
31585;BME280;18191;51.288;12.390;2023-05-07T14:36:26;48981.00;;;-144.47;47.08
31585;BME280;18191;51.288;12.390;2023-05-07T14:41:17;48951.16;;;-144.47;47.35
31585;BME280;18191;51.288;12.390;2023-05-07T14:46:07;48961.09;;;-144.47;46.77
31585;BME280;18191;51.288;12.390;2023-05-07T14:50:57;48933.25;;;-144.47;49.57
31585;BME280;18191;51.288;12.390;2023-05-07T14:55:47;48961.09;;;-144.47;49.67
31585;BME280;18191;51.288;12.390;2023-05-07T15:00:37;48973.03;;;-144.47;47.71
31585;BME280;18191;51.288;12.390;2023-05-07T15:05:28;48949.16;;;-144.47;47.46
31585;BME280;18191;51.288;12.390;2023-05-07T15:10:18;48957.13;;;-144.47;48.74
31585;BME280;18191;51.288;12.390;2023-05-07T15:15:10;48969.06;;;-144.47;50.30
31585;BME280;18191;51.288;12.390;2023-05-07T15:20:00;48945.19;;;-144.47;49.58
31585;BME280;18191;51.288;12.390;2023-05-07T15:24:53;48941.19;;;-144.47;49.08
31585;BME280;18191;51.288;12.390;2023-05-07T15:29:45;48981.00;;;-144.47;48.37
31585;BME280;18191;51.288;12.390;2023-05-07T15:34:35;48921.31;;;-144.47;48.68
31585;BME280;18191;51.288;12.390;2023-05-07T15:39:25;48959.09;;;-144.47;50.41
31585;BME280;18191;51.288;12.390;2023-05-07T15:44:15;48961.09;;;-144.47;52.12
31585;BME280;18191;51.288;12.390;2023-05-07T15:49:05;48984.97;;;-144.47;50.39
31585;BME280;18191;51.288;12.390;2023-05-07T15:53:57;48937.22;;;-144.47;51.27
31585;BME280;18191;51.288;12.390;2023-05-07T15:58:47;48984.97;;;-144.47;51.88
31585;BME280;18191;51.288;12.390;2023-05-07T16:03:38;48990.94;;;-144.47;52.02
31585;BME280;18191;51.288;12.390;2023-05-07T16:08:30;48959.09;;;-144.47;53.96
31585;BME280;18191;51.288;12.390;2023-05-07T16:13:20;48933.25;;;-144.47;52.91
31585;BME280;18191;51.288;12.390;2023-05-07T16:18:10;48963.09;;;-144.47;53.10
31585;BME280;18191;51.288;12.390;2023-05-07T16:23:01;48961.09;;;-144.47;54.25
31585;BME280;18191;51.288;12.390;2023-05-07T16:27:51;48937.22;;;-144.47;54.54
31585;BME280;18191;51.288;12.390;2023-05-07T16:32:42;48963.09;;;-144.47;53.69
31585;BME280;18191;51.288;12.390;2023-05-07T16:37:32;48969.06;;;-144.47;53.75
31585;BME280;18191;51.288;12.390;2023-05-07T16:42:23;48969.06;;;-144.47;54.66
31585;BME280;18191;51.288;12.390;2023-05-07T16:47:13;48961.09;;;-144.47;57.02
31585;BME280;18191;51.288;12.390;2023-05-07T16:52:03;48937.22;;;-144.47;57.35
31585;BME280;18191;51.288;12.390;2023-05-07T16:56:54;48981.00;;;-144.47;55.11
31585;BME280;18191;51.288;12.390;2023-05-07T17:01:44;48981.00;;;-144.47;55.16
31585;BME280;18191;51.288;12.390;2023-05-07T17:06:34;48996.91;;;-144.47;55.77
31585;BME280;18191;51.288;12.390;2023-05-07T17:11:25;48935.25;;;-144.47;54.93
31585;BME280;18191;51.288;12.390;2023-05-07T17:16:19;49000.88;;;-144.47;52.65
31585;BME280;18191;51.288;12.390;2023-05-07T17:21:10;48981.00;;;-144.47;51.34
31585;BME280;18191;51.288;12.390;2023-05-07T17:26:00;48949.16;;;-144.47;51.94
31585;BME280;18191;51.288;12.390;2023-05-07T17:30:50;48996.91;;;-144.47;50.63
31585;BME280;18191;51.288;12.390;2023-05-07T17:35:40;48969.06;;;-144.47;50.14
31585;BME280;18191;51.288;12.390;2023-05-07T17:40:30;48977.00;;;-144.47;48.94
31585;BME280;18191;51.288;12.390;2023-05-07T17:45:21;48935.25;;;-144.47;51.83
31585;BME280;18191;51.288;12.390;2023-05-07T17:50:11;48947.16;;;-144.47;55.66
31585;BME280;18191;51.288;12.390;2023-05-07T17:55:03;48965.06;;;-144.47;58.16
31585;BME280;18191;51.288;12.390;2023-05-07T17:59:53;48969.06;;;-144.47;60.21
31585;BME280;18191;51.288;12.390;2023-05-07T18:04:43;48961.09;;;-144.47;62.90
31585;BME280;18191;51.288;12.390;2023-05-07T18:09:34;48975.03;;;-144.47;62.19
31585;BME280;18191;51.288;12.390;2023-05-07T18:14:24;48984.97;;;-144.47;62.76
31585;BME280;18191;51.288;12.390;2023-05-07T18:19:14;48969.06;;;-144.47;62.47
31585;BME280;18191;51.288;12.390;2023-05-07T18:24:05;49010.81;;;-144.47;64.46
31585;BME280;18191;51.288;12.390;2023-05-07T18:28:55;48951.16;;;-144.47;63.55
31585;BME280;18191;51.288;12.390;2023-05-07T18:33:45;48992.94;;;-144.47;64.02
31585;BME280;18191;51.288;12.390;2023-05-07T18:38:36;48957.13;;;-144.47;64.15
31585;BME280;18191;51.288;12.390;2023-05-07T18:43:27;48977.00;;;-144.47;63.94
31585;BME280;18191;51.288;12.390;2023-05-07T18:48:17;49008.84;;;-144.47;64.55
31585;BME280;18191;51.288;12.390;2023-05-07T18:53:08;48992.94;;;-144.47;65.14
31585;BME280;18191;51.288;12.390;2023-05-07T18:57:58;48973.03;;;-144.47;65.95
31585;BME280;18191;51.288;12.390;2023-05-07T19:02:48;49014.81;;;-144.47;66.15
31585;BME280;18191;51.288;12.390;2023-05-07T19:07:38;49000.88;;;-144.47;67.09
31585;BME280;18191;51.288;12.390;2023-05-07T19:12:28;48953.13;;;-144.47;67.78
31585;BME280;18191;51.288;12.390;2023-05-07T19:17:19;48981.00;;;-144.47;68.45
31585;BME280;18191;51.288;12.390;2023-05-07T19:22:11;48990.94;;;-144.47;68.01
31585;BME280;18191;51.288;12.390;2023-05-07T19:27:02;49010.81;;;-144.47;68.89
31585;BME280;18191;51.288;12.390;2023-05-07T19:31:53;49012.81;;;-144.47;69.53
31585;BME280;18191;51.288;12.390;2023-05-07T19:36:45;48981.00;;;-144.47;70.41
31585;BME280;18191;51.288;12.390;2023-05-07T19:41:35;48984.97;;;-144.47;70.18
31585;BME280;18191;51.288;12.390;2023-05-07T19:46:25;48990.94;;;-144.47;70.06
31585;BME280;18191;51.288;12.390;2023-05-07T19:51:16;48984.97;;;-144.47;70.84
31585;BME280;18191;51.288;12.390;2023-05-07T19:56:11;48981.00;;;-144.47;70.35
31585;BME280;18191;51.288;12.390;2023-05-07T20:01:02;49024.75;;;-144.47;69.89
31585;BME280;18191;51.288;12.390;2023-05-07T20:05:55;48969.06;;;-144.47;70.12
31585;BME280;18191;51.288;12.390;2023-05-07T20:10:46;49008.84;;;-144.47;70.30
31585;BME280;18191;51.288;12.390;2023-05-07T20:15:44;48996.91;;;-144.47;70.22
31585;BME280;18191;51.288;12.390;2023-05-07T20:20:35;48975.03;;;-144.47;69.33
31585;BME280;18191;51.288;12.390;2023-05-07T20:25:25;48961.09;;;-144.47;69.72
31585;BME280;18191;51.288;12.390;2023-05-07T20:30:17;48981.00;;;-144.47;69.85
31585;BME280;18191;51.288;12.390;2023-05-07T20:35:09;48975.03;;;-144.47;70.02
31585;BME280;18191;51.288;12.390;2023-05-07T20:39:59;48988.94;;;-144.47;70.09
31585;BME280;18191;51.288;12.390;2023-05-07T20:44:50;49020.78;;;-144.47;70.06
31585;BME280;18191;51.288;12.390;2023-05-07T20:49:40;49000.88;;;-144.47;70.53
31585;BME280;18191;51.288;12.390;2023-05-07T20:54:30;48996.91;;;-144.47;70.91
31585;BME280;18191;51.288;12.390;2023-05-07T20:59:22;49012.81;;;-144.47;70.09
31585;BME280;18191;51.288;12.390;2023-05-07T21:04:12;48981.00;;;-144.47;71.21
31585;BME280;18191;51.288;12.390;2023-05-07T21:09:03;48981.00;;;-144.47;71.78
31585;BME280;18191;51.288;12.390;2023-05-07T21:13:53;48959.09;;;-144.47;71.72
31585;BME280;18191;51.288;12.390;2023-05-07T21:18:45;49024.75;;;-144.47;71.10
31585;BME280;18191;51.288;12.390;2023-05-07T21:23:35;49014.81;;;-144.47;72.17
31585;BME280;18191;51.288;12.390;2023-05-07T21:28:27;49008.84;;;-144.47;71.83
31585;BME280;18191;51.288;12.390;2023-05-07T21:33:20;48984.97;;;-144.47;72.30
31585;BME280;18191;51.288;12.390;2023-05-07T21:38:10;49000.88;;;-144.47;72.45
31585;BME280;18191;51.288;12.390;2023-05-07T21:43:04;48975.03;;;-144.47;72.78
31585;BME280;18191;51.288;12.390;2023-05-07T21:47:54;48961.09;;;-144.47;72.58
31585;BME280;18191;51.288;12.390;2023-05-07T21:52:45;48971.03;;;-144.47;72.81
31585;BME280;18191;51.288;12.390;2023-05-07T21:57:36;49018.78;;;-144.47;72.77
31585;BME280;18191;51.288;12.390;2023-05-07T22:02:26;49008.84;;;-144.47;73.25
31585;BME280;18191;51.288;12.390;2023-05-07T22:07:16;49016.78;;;-144.47;73.06
31585;BME280;18191;51.288;12.390;2023-05-07T22:12:07;48982.97;;;-144.47;73.04
31585;BME280;18191;51.288;12.390;2023-05-07T22:16:57;49016.78;;;-144.47;73.67
31585;BME280;18191;51.288;12.390;2023-05-07T22:21:47;49024.75;;;-144.47;74.18
31585;BME280;18191;51.288;12.390;2023-05-07T22:26:37;48996.91;;;-144.47;73.41
31585;BME280;18191;51.288;12.390;2023-05-07T22:31:28;49014.81;;;-144.47;73.17
31585;BME280;18191;51.288;12.390;2023-05-07T22:36:18;49014.81;;;-144.47;73.56
31585;BME280;18191;51.288;12.390;2023-05-07T22:41:09;49012.81;;;-144.47;73.55
31585;BME280;18191;51.288;12.390;2023-05-07T22:45:59;49022.75;;;-144.47;73.49
31585;BME280;18191;51.288;12.390;2023-05-07T22:50:50;49034.69;;;-144.47;74.24
31585;BME280;18191;51.288;12.390;2023-05-07T22:55:40;49020.78;;;-144.47;74.23
31585;BME280;18191;51.288;12.390;2023-05-07T23:00:31;48996.91;;;-144.47;73.89
31585;BME280;18191;51.288;12.390;2023-05-07T23:05:21;48988.94;;;-144.47;74.38
31585;BME280;18191;51.288;12.390;2023-05-07T23:10:11;49016.78;;;-144.47;74.86
31585;BME280;18191;51.288;12.390;2023-05-07T23:15:01;49014.81;;;-144.47;73.80
31585;BME280;18191;51.288;12.390;2023-05-07T23:19:52;49034.69;;;-144.47;74.00
31585;BME280;18191;51.288;12.390;2023-05-07T23:24:42;49068.50;;;-144.47;73.64
31585;BME280;18191;51.288;12.390;2023-05-07T23:29:33;49000.88;;;-144.47;73.97
31585;BME280;18191;51.288;12.390;2023-05-07T23:34:23;48988.94;;;-144.47;73.94
31585;BME280;18191;51.288;12.390;2023-05-07T23:39:13;49020.78;;;-144.47;74.01
31585;BME280;18191;51.288;12.390;2023-05-07T23:44:04;49018.78;;;-144.47;74.52
31585;BME280;18191;51.288;12.390;2023-05-07T23:48:54;49016.78;;;-144.47;74.25
31585;BME280;18191;51.288;12.390;2023-05-07T23:53:44;49032.72;;;-144.47;74.98
31585;BME280;18191;51.288;12.390;2023-05-07T23:58:34;48996.91;;;-144.47;75.05
